Time;durP1;ratioP1;P1;durP2;ratioP2;P2;SDS_P1;SDS_P2;PMS_P1;PMS_P2;Temp;Humidity;BMP_temperature;BMP_pressure;BME280_temperature;BME280_humidity;BME280_pressure;Samples;Min_cycle;Max_cycle;Signal;HPM_P1;HPM_P2
2023/10/19 00:01:09;;;;;;;;;;;;;;;20.20;57.27;100041.09;5030751;28;6137;-71
2023/10/19 00:03:35;;;;;;;;;;;;;;;20.20;57.30;100035.34;5035786;28;2499;-71
2023/10/19 00:06:02;;;;;;;;;;;;;;;20.20;57.26;100036.09;5032171;28;2159;-71
2023/10/19 00:08:41;;;;;;;;;;;;;;;20.20;57.45;100029.59;5034296;28;2244;-72
2023/10/19 00:11:21;;;;;;;;;;;;;;;20.19;57.14;100017.34;5033312;28;2180;-71
2023/10/19 00:13:50;;;;;;;;;;;;;;;20.18;57.14;100015.91;5035185;28;2241;-72
2023/10/19 00:16:17;;;;;;;;;;;;;;;20.19;57.40;100011.63;5016368;28;2178;-72
2023/10/19 00:18:44;;;;;;;;;;;;;;;20.18;57.31;100004.41;5033572;28;2142;-72
2023/10/19 00:21:29;;;;;;;;;;;;;;;20.18;57.41;99997.91;5034754;28;2239;-71
2023/10/19 00:24:04;;;;;;;;;;;;;;;20.18;57.17;99986.41;5034169;28;2347;-71
2023/10/19 00:26:31;;;;;;;;;;;;;;;20.17;57.36;99993.56;5018353;28;2115;-71
2023/10/19 00:28:58;;;;;;;;;;;;;;;20.18;57.22;99983.53;5034995;28;2206;-72
2023/10/19 00:31:27;;;;;;;;;;;;;;;20.17;57.11;99996.44;5030886;28;6022;-71
2023/10/19 00:33:56;;;;;;;;;;;;;;;20.18;57.31;99986.41;5001582;28;2732;-71
2023/10/19 00:36:24;;;;;;;;;;;;;;;20.16;57.29;99972.72;5031722;28;2256;-71
2023/10/19 00:38:53;;;;;;;;;;;;;;;20.16;57.19;99971.97;5000457;28;2148;-71
2023/10/19 00:41:32;;;;;;;;;;;;;;;20.17;57.18;99964.81;5034547;28;2201;-71
2023/10/19 00:44:11;;;;;;;;;;;;;;;20.15;57.17;99959.72;5033190;28;2320;-71
2023/10/19 00:46:43;;;;;;;;;;;;;;;20.15;57.33;99962.59;5032388;28;2330;-72
2023/10/19 00:49:14;;;;;;;;;;;;;;;20.16;57.25;99946.09;5010874;28;2247;-71
2023/10/19 00:54:26;;;;;;;;;;;;;;;20.15;57.33;99953.25;5032373;28;2334;-71
2023/10/19 00:56:56;;;;;;;;;;;;;;;20.14;57.21;99940.31;5033717;28;2175;-71
2023/10/19 00:59:23;;;;;;;;;;;;;;;20.15;57.16;99944.63;5032779;28;2306;-71
2023/10/19 01:01:53;;;;;;;;;;;;;;;20.14;57.16;99931.69;5032414;28;6292;-72
2023/10/19 01:04:23;;;;;;;;;;;;;;;20.13;57.30;99933.78;5033231;28;2214;-71
2023/10/19 01:07:07;;;;;;;;;;;;;;;20.13;57.23;99921.56;5032989;28;2157;-71
2023/10/19 01:09:35;;;;;;;;;;;;;;;20.12;57.49;99912.22;5033743;28;2193;-72
2023/10/19 01:12:21;;;;;;;;;;;;;;;20.12;57.36;99915.09;5035017;28;2217;-72
2023/10/19 01:15:17;;;;;;;;;;;;;;;20.13;57.31;99918.69;5019948;28;2209;-70
2023/10/19 01:17:44;;;;;;;;;;;;;;;20.11;57.40;99912.88;5036516;28;2177;-71
2023/10/19 01:20:22;;;;;;;;;;;;;;;20.12;57.15;99902.88;5014100;28;2538;-71
2023/10/19 01:28:25;;;;;;;;;;;;;;;20.11;57.12;99890.63;5031079;28;2259;-72
2023/10/19 01:30:52;;;;;;;;;;;;;;;20.11;57.20;99884.13;5010945;28;6058;-71
2023/10/19 01:33:18;;;;;;;;;;;;;;;20.11;57.18;99884.13;5019546;28;2239;-71
2023/10/19 01:38:34;;;;;;;;;;;;;;;20.09;57.09;99859.69;5034496;28;2490;-71
2023/10/19 01:41:01;;;;;;;;;;;;;;;20.09;57.09;99856.81;5033458;28;2184;-71
2023/10/19 01:43:31;;;;;;;;;;;;;;;20.08;57.27;99858.22;5036446;28;2248;-72
2023/10/19 01:46:04;;;;;;;;;;;;;;;20.08;57.13;99852.47;5002682;28;2350;-71
2023/10/19 01:48:34;;;;;;;;;;;;;;;20.08;57.23;99852.47;5035170;28;2201;-71
2023/10/19 01:51:04;;;;;;;;;;;;;;;20.08;57.06;99835.22;5020416;28;2198;-71
2023/10/19 01:53:39;;;;;;;;;;;;;;;20.08;57.19;99846.00;5034824;28;2157;-71
2023/10/19 01:56:09;;;;;;;;;;;;;;;20.06;57.05;99843.03;5018868;28;2257;-71
2023/10/19 01:58:39;;;;;;;;;;;;;;;20.07;57.00;99844.53;5019422;28;2157;-71
2023/10/19 02:03:44;;;;;;;;;;;;;;;20.07;57.05;99833.03;5015483;28;2195;-71
2023/10/19 02:06:17;;;;;;;;;;;;;;;20.06;57.23;99837.31;5035501;28;2240;-71
2023/10/19 02:08:44;;;;;;;;;;;;;;;20.05;56.95;99836.56;5019153;28;2180;-70
2023/10/19 02:11:17;;;;;;;;;;;;;;;20.05;56.98;99835.84;5034807;28;2245;-72
2023/10/19 02:13:46;;;;;;;;;;;;;;;20.05;56.93;99832.97;5016761;28;2190;-71
2023/10/19 02:16:14;;;;;;;;;;;;;;;20.03;57.00;99822.13;5017591;28;2203;-71
2023/10/19 02:18:41;;;;;;;;;;;;;;;20.03;57.19;99815.66;5033501;28;2204;-71
2023/10/19 02:21:11;;;;;;;;;;;;;;;20.04;57.17;99811.38;5033992;28;2209;-71
2023/10/19 02:23:39;;;;;;;;;;;;;;;20.03;56.95;99810.63;5032931;28;2264;-71
2023/10/19 02:26:06;;;;;;;;;;;;;;;20.03;57.15;99812.78;5034316;28;2134;-71
2023/10/19 02:28:36;;;;;;;;;;;;;;;20.04;57.09;99811.38;5035419;28;2272;-71
2023/10/19 02:31:18;;;;;;;;;;;;;;;20.02;56.86;99797.69;5018549;28;7336;-71
2023/10/19 02:33:51;;;;;;;;;;;;;;;20.01;57.20;99787.59;5035840;28;2185;-71
2023/10/19 02:36:19;;;;;;;;;;;;;;;20.02;56.94;99786.19;5033199;28;2215;-72
2023/10/19 02:38:48;;;;;;;;;;;;;;;20.01;56.83;99781.13;5013966;28;2179;-71
2023/10/19 02:41:20;;;;;;;;;;;;;;;20.02;56.96;99786.19;5034666;28;2253;-71
2023/10/19 02:43:50;;;;;;;;;;;;;;;20.04;57.08;99777.66;5033169;28;2300;-71
2023/10/19 02:46:17;;;;;;;;;;;;;;;20.06;56.96;99780.56;5032497;28;2235;-71
2023/10/19 02:48:44;;;;;;;;;;;;;;;20.08;56.74;99777.75;5032136;28;2164;-73
2023/10/19 02:51:11;;;;;;;;;;;;;;;20.09;56.97;99779.22;5017951;28;2154;-73
2023/10/19 02:53:39;;;;;;;;;;;;;;;20.10;56.99;99785.69;5034001;28;2153;-73
2023/10/19 02:56:09;;;;;;;;;;;;;;;20.12;56.96;99773.53;5016003;28;2190;-73
2023/10/19 02:58:36;;;;;;;;;;;;;;;20.12;56.70;99764.91;5017817;28;2273;-74
2023/10/19 03:01:08;;;;;;;;;;;;;;;20.12;56.98;99765.66;5004720;28;6091;-73
2023/10/19 03:03:35;;;;;;;;;;;;;;;20.13;56.96;99763.50;5000699;28;2198;-73
2023/10/19 03:06:03;;;;;;;;;;;;;;;20.13;56.93;99761.34;5034904;28;2223;-73
2023/10/19 03:08:31;;;;;;;;;;;;;;;20.13;56.88;99758.47;5032871;28;2275;-73
2023/10/19 03:11:13;;;;;;;;;;;;;;;20.14;56.99;99756.38;5034742;28;2137;-73
2023/10/19 03:13:40;;;;;;;;;;;;;;;20.14;56.70;99762.09;5033546;28;2172;-73
2023/10/19 03:16:07;;;;;;;;;;;;;;;20.15;56.98;99752.06;5018555;28;2170;-73
2023/10/19 03:18:34;;;;;;;;;;;;;;;20.16;56.85;99753.53;5032346;28;2387;-73
2023/10/19 03:21:02;;;;;;;;;;;;;;;20.16;56.77;99753.53;5010800;28;2467;-74
2023/10/19 03:23:28;;;;;;;;;;;;;;;20.16;57.01;99730.53;5033658;28;2216;-73
2023/10/19 03:26:40;;;;;;;;;;;;;;;20.18;57.08;99727.72;5033219;28;2237;-74
2023/10/19 03:28:45;;;;;;;;;;;;;;;20.17;56.80;99720.50;5024901;28;2372;-73
2023/10/19 03:31:17;;;;;;;;;;;;;;;20.16;56.87;99714.03;5015669;28;6275;-73
2023/10/19 03:33:46;;;;;;;;;;;;;;;20.18;56.82;99716.22;5034220;28;2236;-74
2023/10/19 03:36:14;;;;;;;;;;;;;;;20.18;56.85;99716.22;5013100;28;2237;-73
2023/10/19 03:38:40;;;;;;;;;;;;;;;20.17;56.91;99704.00;5034944;28;2249;-73
2023/10/19 03:41:08;;;;;;;;;;;;;;;20.18;56.99;99704.72;5016096;28;2214;-73
2023/10/19 03:43:34;;;;;;;;;;;;;;;20.17;56.85;99692.50;5032121;28;2192;-73
2023/10/19 03:46:14;;;;;;;;;;;;;;;20.17;56.99;99697.53;5033196;28;2201;-72
2023/10/19 03:48:41;;;;;;;;;;;;;;;20.19;56.97;99691.84;5013021;28;2564;-73
2023/10/19 03:51:12;;;;;;;;;;;;;;;20.17;56.95;99686.03;5031682;28;2175;-73
2023/10/19 03:53:38;;;;;;;;;;;;;;;20.18;56.89;99675.97;5032113;28;2551;-74
2023/10/19 03:56:10;;;;;;;;;;;;;;;20.18;56.91;99682.50;5033586;28;2816;-73
2023/10/19 03:58:38;;;;;;;;;;;;;;;20.18;57.04;99673.09;5034849;28;2185;-74
2023/10/19 04:01:05;;;;;;;;;;;;;;;20.18;56.85;99675.97;5032400;28;6035;-74
2023/10/19 04:03:31;;;;;;;;;;;;;;;20.19;56.97;99665.97;5034600;28;2192;-73
2023/10/19 04:06:01;;;;;;;;;;;;;;;20.19;56.92;99672.44;5032751;28;2242;-73
2023/10/19 04:08:31;;;;;;;;;;;;;;;20.20;56.91;99661.66;5033218;28;2212;-74
2023/10/19 04:11:21;;;;;;;;;;;;;;;20.20;56.92;99678.91;5033225;28;2165;-73
2023/10/19 04:13:52;;;;;;;;;;;;;;;20.19;57.13;99654.47;5034326;28;2463;-73
2023/10/19 04:16:19;;;;;;;;;;;;;;;20.19;57.03;99665.97;5032892;28;2169;-73
2023/10/19 04:18:46;;;;;;;;;;;;;;;20.19;57.10;99666.69;5013489;28;2669;-73
2023/10/19 04:21:12;;;;;;;;;;;;;;;20.20;57.04;99655.94;5031688;28;2213;-73
2023/10/19 04:23:39;;;;;;;;;;;;;;;20.19;57.12;99663.81;5031557;28;2312;-74
2023/10/19 04:26:10;;;;;;;;;;;;;;;20.18;56.92;99659.50;5035086;28;2277;-74
2023/10/19 04:28:49;;;;;;;;;;;;;;;20.19;56.96;99655.19;5035687;28;2268;-74
2023/10/19 04:31:17;;;;;;;;;;;;;;;20.19;57.06;99642.97;5033731;28;6476;-74
2023/10/19 04:33:45;;;;;;;;;;;;;;;20.19;57.11;99637.22;5035562;28;2170;-74
2023/10/19 04:36:13;;;;;;;;;;;;;;;20.19;57.02;99635.09;5031150;28;2176;-74
2023/10/19 04:38:39;;;;;;;;;;;;;;;20.20;57.19;99632.94;5032243;28;2138;-74
2023/10/19 04:41:07;;;;;;;;;;;;;;;20.21;57.04;99637.28;5032315;28;2161;-74
2023/10/19 04:43:37;;;;;;;;;;;;;;;20.22;57.02;99633.00;5015644;28;2299;-74
2023/10/19 04:46:12;;;;;;;;;;;;;;;20.22;56.88;99630.13;5030607;28;2251;-73
2023/10/19 04:48:39;;;;;;;;;;;;;;;20.24;56.99;99639.53;5035753;28;2214;-74
2023/10/19 04:51:07;;;;;;;;;;;;;;;20.21;57.30;99632.25;5035772;28;2286;-71
2023/10/19 04:53:33;;;;;;;;;;;;;;;20.23;56.99;99631.59;5037800;28;2206;-73
2023/10/19 04:56:00;;;;;;;;;;;;;;;20.21;56.98;99620.78;5033104;28;2240;-72
2023/10/19 04:58:27;;;;;;;;;;;;;;;20.21;56.90;99623.66;5036076;28;2474;-73
2023/10/19 05:00:54;;;;;;;;;;;;;;;20.34;57.24;99618.22;5029955;28;6266;-80
2023/10/19 05:03:21;;;;;;;;;;;;;;;20.62;57.50;99606.75;5027463;28;2659;-81
2023/10/19 05:05:47;;;;;;;;;;;;;;;20.53;56.44;99605.78;5034544;28;2465;-84
2023/10/19 05:08:14;;;;;;;;;;;;;;;20.51;56.46;99612.22;5018302;28;2807;-82
2023/10/19 05:10:42;;;;;;;;;;;;;;;20.61;57.11;99605.28;5032591;28;2408;-83
2023/10/19 05:13:08;;;;;;;;;;;;;;;20.81;56.58;99611.53;5030902;28;2432;-79
2023/10/19 05:15:34;;;;;;;;;;;;;;;20.81;56.46;99610.81;5030573;28;2306;-82
2023/10/19 05:18:01;;;;;;;;;;;;;;;21.00;56.00;99609.13;5033743;28;4141;-81
2023/10/19 05:20:27;;;;;;;;;;;;;;;20.73;56.19;99622.88;5019447;28;4455;-88
2023/10/19 05:22:54;;;;;;;;;;;;;;;20.94;56.19;99618.34;5038662;28;2778;-82
2023/10/19 05:25:23;;;;;;;;;;;;;;;20.99;55.93;99613.41;5041443;28;2446;-84
2023/10/19 05:27:49;;;;;;;;;;;;;;;21.14;55.92;99612.31;5039847;28;2271;-79
2023/10/19 05:30:16;;;;;;;;;;;;;;;21.29;55.63;99617.00;5037676;28;6336;-77
2023/10/19 05:32:42;;;;;;;;;;;;;;;21.38;55.47;99614.31;5037765;28;2504;-75
2023/10/19 05:35:12;;;;;;;;;;;;;;;21.47;54.82;99613.09;5036964;28;3123;-78
2023/10/19 05:37:39;;;;;;;;;;;;;;;21.46;54.77;99623.13;5022376;28;2360;-80
2023/10/19 05:40:12;;;;;;;;;;;;;;;21.12;55.40;99618.06;5032022;28;4078;-73
2023/10/19 05:42:39;;;;;;;;;;;;;;;21.19;55.40;99625.41;5046640;28;2327;-81
2023/10/19 05:45:05;;;;;;;;;;;;;;;21.31;54.99;99625.69;5043021;28;2330;-77
2023/10/19 05:47:32;;;;;;;;;;;;;;;21.29;54.66;99616.28;5009553;28;2298;-71
2023/10/19 05:49:58;;;;;;;;;;;;;;;21.23;54.01;99621.88;5032108;28;2297;-72
2023/10/19 05:52:25;;;;;;;;;;;;;;;21.15;53.85;99615.94;5039387;28;2312;-71
2023/10/19 05:54:53;;;;;;;;;;;;;;;21.05;53.99;99611.41;5037280;28;2200;-72
2023/10/19 05:57:20;;;;;;;;;;;;;;;21.34;53.10;99614.94;5043529;28;4914;-76
2023/10/19 05:59:47;;;;;;;;;;;;;;;21.45;51.72;99604.41;5044811;28;2356;-73
2023/10/19 06:02:14;;;;;;;;;;;;;;;21.33;50.90;99602.69;5041057;28;6416;-75
2023/10/19 06:04:40;;;;;;;;;;;;;;;21.31;51.06;99601.91;5043072;28;2291;-74
2023/10/19 06:07:07;;;;;;;;;;;;;;;21.22;50.32;99589.47;5046823;28;2316;-74
2023/10/19 06:09:33;;;;;;;;;;;;;;;21.16;50.04;99580.72;5045250;28;2164;-73
2023/10/19 06:12:00;;;;;;;;;;;;;;;21.17;49.77;99576.44;5025749;28;2434;-73
2023/10/19 06:14:27;;;;;;;;;;;;;;;21.11;50.06;99573.41;5026266;28;2499;-73
2023/10/19 06:16:54;;;;;;;;;;;;;;;21.07;49.55;99576.19;5046334;28;2271;-76
2023/10/19 06:19:20;;;;;;;;;;;;;;;20.84;49.70;99569.91;5044760;28;2275;-74
2023/10/19 06:21:47;;;;;;;;;;;;;;;20.68;49.66;99558.00;5041587;28;2323;-82
2023/10/19 06:24:14;;;;;;;;;;;;;;;20.65;49.32;99553.63;5039340;28;2232;-84
2023/10/19 06:26:43;;;;;;;;;;;;;;;20.62;49.60;99555.72;5002534;28;2286;-80
2023/10/19 06:29:09;;;;;;;;;;;;;;;20.50;49.72;99550.38;5039382;28;2414;-81
2023/10/19 06:31:36;;;;;;;;;;;;;;;20.45;50.08;99545.19;5036177;28;6289;-76
2023/10/19 06:34:02;;;;;;;;;;;;;;;20.42;49.88;99546.56;5010277;28;4214;-75
2023/10/19 06:36:31;;;;;;;;;;;;;;;20.50;50.11;99555.38;5037361;28;4490;-77
2023/10/19 06:38:58;;;;;;;;;;;;;;;20.61;50.22;99547.78;5035519;28;2654;-77
2023/10/19 06:41:25;;;;;;;;;;;;;;;20.82;49.08;99548.97;5022338;28;2629;-77
2023/10/19 06:43:51;;;;;;;;;;;;;;;20.87;48.67;99542.66;5038301;28;2473;-78
2023/10/19 06:46:18;;;;;;;;;;;;;;;20.91;48.42;99534.13;5035990;28;2497;-76
2023/10/19 06:48:45;;;;;;;;;;;;;;;21.01;48.24;99530.00;5034460;28;4417;-80
2023/10/19 06:51:11;;;;;;;;;;;;;;;21.01;48.14;99530.00;5037009;28;2491;-76
2023/10/19 06:53:38;;;;;;;;;;;;;;;20.90;48.33;99526.16;5036849;28;4497;-76
2023/10/19 06:56:04;;;;;;;;;;;;;;;20.85;48.69;99522.47;5035600;28;2730;-75
2023/10/19 06:58:31;;;;;;;;;;;;;;;21.12;49.01;99517.31;5033766;28;2908;-77
2023/10/19 07:00:59;;;;;;;;;;;;;;;21.42;48.72;99519.41;5036761;28;6310;-76
2023/10/19 07:03:28;;;;;;;;;;;;;;;21.46;48.64;99525.22;5035576;28;2441;-77
2023/10/19 07:05:55;;;;;;;;;;;;;;;21.45;48.51;99535.31;5037801;28;2286;-80
2023/10/19 07:08:22;;;;;;;;;;;;;;;20.68;47.73;99546.50;5035940;28;4469;-78
2023/10/19 07:10:49;;;;;;;;;;;;;;;20.87;48.08;99545.53;5020751;28;3833;-82
2023/10/19 07:13:16;;;;;;;;;;;;;;;20.96;49.26;99549.34;5038516;28;4737;-79
2023/10/19 07:15:44;;;;;;;;;;;;;;;20.99;49.78;99550.09;5021007;28;2663;-80
2023/10/19 07:18:11;;;;;;;;;;;;;;;20.99;49.96;99550.84;5039197;28;2407;-81
2023/10/19 07:20:39;;;;;;;;;;;;;;;21.02;50.26;99545.84;5037511;28;2959;-80
2023/10/19 07:23:09;;;;;;;;;;;;;;;21.07;50.10;99544.53;5037864;28;4711;-80
2023/10/19 07:25:45;;;;;;;;;;;;;;;21.06;50.38;99538.03;5039198;28;2671;-80
2023/10/19 07:28:14;;;;;;;;;;;;;;;21.06;50.59;99540.19;5038270;28;4548;-80
2023/10/19 07:30:41;;;;;;;;;;;;;;;21.10;50.67;99557.56;5038646;28;6226;-82
2023/10/19 07:33:09;;;;;;;;;;;;;;;21.09;50.53;99558.97;5040128;28;2674;-81
2023/10/19 07:35:38;;;;;;;;;;;;;;;21.04;50.97;99569.66;5023621;28;2242;-80
2023/10/19 07:38:07;;;;;;;;;;;;;;;21.06;51.17;99563.22;5038159;28;2467;-79
2023/10/19 07:40:34;;;;;;;;;;;;;;;21.11;50.83;99567.66;5037914;28;2266;-78
2023/10/19 07:43:00;;;;;;;;;;;;;;;21.08;50.65;99563.25;5037565;28;5021;-80
2023/10/19 07:45:27;;;;;;;;;;;;;;;21.08;50.91;99557.50;5040650;28;2526;-79
2023/10/19 07:47:53;;;;;;;;;;;;;;;21.04;51.27;99557.41;5039609;28;2691;-75
2023/10/19 07:50:22;;;;;;;;;;;;;;;21.04;51.18;99557.41;5039055;28;2487;-76
2023/10/19 07:52:51;;;;;;;;;;;;;;;21.08;51.08;99552.47;5036424;28;4475;-77
2023/10/19 07:55:18;;;;;;;;;;;;;;;21.18;50.93;99554.13;5039011;28;4505;-76
2023/10/19 07:57:45;;;;;;;;;;;;;;;21.17;50.93;99553.41;5039934;28;1637;-76
2023/10/19 08:00:14;;;;;;;;;;;;;;;21.23;51.28;99552.78;5040452;28;6054;-74
2023/10/19 08:02:41;;;;;;;;;;;;;;;21.29;51.20;99547.91;5039990;28;2817;-74
2023/10/19 08:05:08;;;;;;;;;;;;;;;21.29;50.91;99550.78;5023561;28;2380;-76
2023/10/19 08:07:36;;;;;;;;;;;;;;;21.43;50.88;99538.84;5020313;28;2405;-77
2023/10/19 08:10:05;;;;;;;;;;;;;;;21.47;50.77;99535.34;5040679;28;2381;-76
2023/10/19 08:12:32;;;;;;;;;;;;;;;21.48;50.83;99533.91;5040406;28;2664;-75
2023/10/19 08:14:59;;;;;;;;;;;;;;;21.50;50.69;99522.44;5037160;28;2412;-78
2023/10/19 08:17:25;;;;;;;;;;;;;;;21.51;50.65;99521.03;5040599;28;2412;-76
2023/10/19 08:19:52;;;;;;;;;;;;;;;21.52;50.70;99516.72;5041466;28;2118;-77
2023/10/19 08:22:19;;;;;;;;;;;;;;;21.54;50.68;99520.38;5041573;28;2285;-77
2023/10/19 08:24:49;;;;;;;;;;;;;;;21.56;50.86;99516.09;5045145;28;2404;-76
2023/10/19 08:27:17;;;;;;;;;;;;;;;21.56;50.69;99511.06;5042627;28;2372;-76
2023/10/19 08:29:43;;;;;;;;;;;;;;;21.58;50.54;99518.97;5041042;28;2350;-77
2023/10/19 08:32:10;;;;;;;;;;;;;;;21.59;50.94;99497.41;5043528;28;6033;-78
2023/10/19 08:34:36;;;;;;;;;;;;;;;21.24;51.21;99488.78;5042381;28;2394;-78
2023/10/19 08:37:06;;;;;;;;;;;;;;;21.38;51.47;99491.22;5043289;28;2269;-77
2023/10/19 08:39:38;;;;;;;;;;;;;;;21.34;51.59;99491.84;5042563;28;2345;-77
2023/10/19 08:42:04;;;;;;;;;;;;;;;21.36;51.50;99501.97;5041916;28;2360;-79
2023/10/19 08:44:31;;;;;;;;;;;;;;;21.33;51.93;99507.69;5044722;28;2299;-78
2023/10/19 08:46:59;;;;;;;;;;;;;;;21.38;51.72;99502.75;5023008;28;2302;-78
2023/10/19 08:49:28;;;;;;;;;;;;;;;21.38;51.71;99507.78;5043296;28;2492;-78
2023/10/19 08:51:55;;;;;;;;;;;;;;;21.37;51.81;99507.03;5025022;28;2423;-79
2023/10/19 08:54:22;;;;;;;;;;;;;;;21.38;51.69;99502.00;5025862;28;2345;-76
2023/10/19 08:56:48;;;;;;;;;;;;;;;21.36;51.59;99504.84;5043341;28;2257;-76
2023/10/19 08:59:15;;;;;;;;;;;;;;;21.36;51.71;99499.09;5040294;28;2419;-81
2023/10/19 09:01:44;;;;;;;;;;;;;;;21.30;51.94;99506.19;5042731;28;6692;-79
2023/10/19 09:04:11;;;;;;;;;;;;;;;21.31;52.31;99499.00;5041213;28;4316;-76
2023/10/19 09:06:44;;;;;;;;;;;;;;;21.32;52.10;99488.94;5041644;28;2184;-79
2023/10/19 09:09:20;;;;;;;;;;;;;;;21.29;52.36;99493.19;5041575;28;2546;-76
2023/10/19 09:11:46;;;;;;;;;;;;;;;21.28;52.34;99476.59;5043315;28;2192;-76
2023/10/19 09:14:13;;;;;;;;;;;;;;;21.27;52.16;99463.63;5025197;28;2287;-76
2023/10/19 09:16:57;;;;;;;;;;;;;;;21.25;52.52;99466.47;5041297;28;2245;-75
2023/10/19 09:19:45;;;;;;;;;;;;;;;21.13;52.33;99456.16;5025148;28;2388;-79
2023/10/19 09:22:22;;;;;;;;;;;;;;;21.09;52.24;99446.72;5039933;28;2259;-78
2023/10/19 09:24:49;;;;;;;;;;;;;;;21.33;52.81;99455.13;5037910;28;2262;-78
2023/10/19 09:27:19;;;;;;;;;;;;;;;21.38;52.46;99456.66;5039893;28;2298;-79
2023/10/19 09:29:46;;;;;;;;;;;;;;;21.34;52.01;99451.53;5025689;28;2234;-77
2023/10/19 09:32:16;;;;;;;;;;;;;;;21.40;52.12;99458.88;5039743;28;6209;-77
2023/10/19 09:34:44;;;;;;;;;;;;;;;21.42;52.08;99461.81;5040403;28;2268;-79
2023/10/19 09:37:11;;;;;;;;;;;;;;;21.24;52.52;99454.22;5022719;28;2320;-76
2023/10/19 09:39:37;;;;;;;;;;;;;;;21.06;53.20;99463.22;5020334;28;4344;-76
2023/10/19 09:42:06;;;;;;;;;;;;;;;21.07;53.31;99475.44;5042943;28;2636;-78
2023/10/19 09:44:34;;;;;;;;;;;;;;;21.04;53.19;99471.06;5041909;28;2283;-77
2023/10/19 09:47:00;;;;;;;;;;;;;;;21.12;53.31;99471.25;5025536;28;2448;-77
2023/10/19 09:49:28;;;;;;;;;;;;;;;21.14;53.06;99465.53;5025974;28;2448;-77
2023/10/19 09:51:55;;;;;;;;;;;;;;;21.14;53.06;99459.75;5041765;28;2388;-74
2023/10/19 09:54:30;;;;;;;;;;;;;;;21.13;52.96;99461.91;5040989;28;2637;-74
2023/10/19 09:56:58;;;;;;;;;;;;;;;21.11;52.97;99459.00;5022594;28;4664;-74
2023/10/19 09:59:25;;;;;;;;;;;;;;;21.19;53.11;99464.22;5020945;28;4412;-78
2023/10/19 10:02:12;;;;;;;;;;;;;;;21.23;52.84;99458.50;5041750;28;6063;-76
2023/10/19 10:04:40;;;;;;;;;;;;;;;21.34;52.76;99465.94;5041829;28;2427;-76
2023/10/19 10:07:07;;;;;;;;;;;;;;;21.40;52.93;99464.63;5040410;28;2582;-76
2023/10/19 10:09:43;;;;;;;;;;;;;;;21.43;52.82;99457.50;5041497;28;2322;-76
2023/10/19 10:12:18;;;;;;;;;;;;;;;21.44;52.45;99453.19;5039160;28;2471;-78
2023/10/19 10:14:58;;;;;;;;;;;;;;;21.48;52.55;99459.03;5036754;28;2466;-74
2023/10/19 10:17:26;;;;;;;;;;;;;;;21.40;52.67;99447.34;5035773;28;4427;-73
2023/10/19 10:19:54;;;;;;;;;;;;;;;21.37;52.77;99451.59;5038713;28;2680;-73
2023/10/19 10:22:21;;;;;;;;;;;;;;;21.37;52.94;99434.31;5038582;28;1902;-73
2023/10/19 10:24:49;;;;;;;;;;;;;;;21.41;53.17;99429.38;5036525;28;2522;-74
2023/10/19 10:27:17;;;;;;;;;;;;;;;21.34;52.79;99428.50;5021446;28;2404;-73
2023/10/19 10:29:54;;;;;;;;;;;;;;;21.33;53.08;99421.31;5037377;28;2381;-74
2023/10/19 10:32:43;;;;;;;;;;;;;;;21.32;52.81;99419.84;5021906;28;6197;-74
2023/10/19 10:35:10;;;;;;;;;;;;;;;21.33;52.80;99415.53;5026883;28;2352;-74
2023/10/19 10:37:37;;;;;;;;;;;;;;;21.36;53.20;99412.72;5038409;28;2559;-74
2023/10/19 10:40:05;;;;;;;;;;;;;;;21.33;53.14;99415.53;5037480;28;2395;-73
2023/10/19 10:42:34;;;;;;;;;;;;;;;21.33;53.03;99420.59;5040217;28;2369;-72
2023/10/19 10:45:02;;;;;;;;;;;;;;;21.33;52.96;99417.72;5039060;28;2415;-75
2023/10/19 10:47:33;;;;;;;;;;;;;;;21.34;53.00;99425.63;5038041;28;2306;-73
2023/10/19 10:50:00;;;;;;;;;;;;;;;21.41;52.95;99420.03;5043748;28;2187;-73
2023/10/19 10:52:28;;;;;;;;;;;;;;;21.42;53.30;99415.75;5040997;28;2474;-76
2023/10/19 10:54:58;;;;;;;;;;;;;;;21.40;53.12;99404.16;5039810;28;2427;-74
2023/10/19 10:57:31;;;;;;;;;;;;;;;21.38;53.36;99398.34;5041010;28;2390;-77
2023/10/19 11:00:04;;;;;;;;;;;;;;;21.40;53.02;99407.03;5038884;28;2860;-78
2023/10/19 11:02:30;;;;;;;;;;;;;;;21.42;53.15;99402.06;5037311;28;6114;-77
2023/10/19 11:04:56;;;;;;;;;;;;;;;21.41;53.27;99409.22;5039299;28;2376;-78
2023/10/19 11:07:24;;;;;;;;;;;;;;;21.38;53.08;99401.25;5040378;28;2213;-77
2023/10/19 11:09:50;;;;;;;;;;;;;;;21.38;53.29;99399.06;5040382;28;3264;-74
2023/10/19 11:12:17;;;;;;;;;;;;;;;21.37;53.30;99391.13;5037637;28;2254;-74
2023/10/19 11:14:53;;;;;;;;;;;;;;;21.49;52.86;99388.50;5040459;28;4463;-74
2023/10/19 11:17:23;;;;;;;;;;;;;;;21.44;53.28;99398.47;5036389;28;4505;-75
2023/10/19 11:19:49;;;;;;;;;;;;;;;21.19;53.19;99397.25;5036271;28;2463;-75
2023/10/19 11:22:16;;;;;;;;;;;;;;;21.23;52.25;99389.44;5038451;28;2539;-75
2023/10/19 11:24:43;;;;;;;;;;;;;;;21.29;52.87;99380.91;5038785;28;2495;-77
2023/10/19 11:27:11;;;;;;;;;;;;;;;21.66;52.38;99381.59;5021693;28;2372;-75
2023/10/19 11:29:38;;;;;;;;;;;;;;;21.77;52.13;99373.16;5041502;28;2229;-77
2023/10/19 11:32:05;;;;;;;;;;;;;;;21.80;52.36;99377.53;5040447;28;6263;-77
2023/10/19 11:34:34;;;;;;;;;;;;;;;21.83;52.26;99384.75;5040200;28;2227;-76
2023/10/19 11:37:03;;;;;;;;;;;;;;;21.87;52.10;99376.19;5039972;28;2530;-76
2023/10/19 11:39:29;;;;;;;;;;;;;;;21.89;51.97;99376.22;5023792;28;2219;-76
2023/10/19 11:41:56;;;;;;;;;;;;;;;21.91;51.52;99377.00;5041042;28;2259;-77
2023/10/19 11:44:22;;;;;;;;;;;;;;;21.90;51.78;99366.91;5040027;28;2194;-77
2023/10/19 11:46:48;;;;;;;;;;;;;;;21.91;52.03;99364.75;5039854;28;2302;-77
2023/10/19 11:49:15;;;;;;;;;;;;;;;21.96;51.93;99369.13;5041418;28;2240;-77
2023/10/19 11:51:43;;;;;;;;;;;;;;;21.85;51.81;99367.50;5040579;28;2324;-74
2023/10/19 11:54:10;;;;;;;;;;;;;;;21.81;52.04;99368.19;5038508;28;2322;-73
2023/10/19 11:56:37;;;;;;;;;;;;;;;21.80;52.13;99355.19;5038697;28;2128;-73
2023/10/19 11:59:03;;;;;;;;;;;;;;;21.81;51.88;99358.81;5041746;28;2351;-75
2023/10/19 12:01:30;;;;;;;;;;;;;;;21.83;51.94;99368.22;5039073;28;6021;-75
2023/10/19 12:03:56;;;;;;;;;;;;;;;21.88;52.00;99369.03;5039303;28;2366;-74
2023/10/19 12:06:23;;;;;;;;;;;;;;;21.75;52.12;99368.06;5039401;28;2360;-75
2023/10/19 12:08:50;;;;;;;;;;;;;;;21.50;52.65;99364.03;5038387;28;4409;-76
2023/10/19 12:11:16;;;;;;;;;;;;;;;21.46;53.01;99361.09;5038205;28;2609;-77
2023/10/19 12:13:46;;;;;;;;;;;;;;;21.51;52.99;99371.28;5022734;28;2598;-72
2023/10/19 12:16:15;;;;;;;;;;;;;;;21.54;53.07;99359.09;5041878;28;2423;-73
2023/10/19 12:18:45;;;;;;;;;;;;;;;21.57;52.85;99356.97;5023527;28;2309;-73
2023/10/19 12:21:11;;;;;;;;;;;;;;;21.67;52.97;99348.50;5040337;28;2572;-75
2023/10/19 12:23:38;;;;;;;;;;;;;;;21.70;53.05;99346.38;5040867;28;2250;-75
2023/10/19 12:26:10;;;;;;;;;;;;;;;21.67;52.92;99337.00;5041645;28;2400;-75
2023/10/19 12:28:38;;;;;;;;;;;;;;;21.69;52.95;99345.66;5040461;28;2415;-74
2023/10/19 12:31:10;;;;;;;;;;;;;;;21.68;52.79;99349.97;5039474;28;6734;-75
2023/10/19 12:33:38;;;;;;;;;;;;;;;21.66;53.33;99341.28;5037867;28;2357;-73
2023/10/19 12:38:50;;;;;;;;;;;;;;;22.03;52.49;99346.91;5039997;28;2376;-76
2023/10/19 12:41:20;;;;;;;;;;;;;;;21.93;52.14;99347.47;5039081;28;2594;-72
2023/10/19 12:43:47;;;;;;;;;;;;;;;21.78;52.59;99334.25;5037964;28;2369;-74
2023/10/19 12:46:14;;;;;;;;;;;;;;;21.73;53.15;99345.72;5038832;28;2388;-75
2023/10/19 12:48:40;;;;;;;;;;;;;;;22.02;52.29;99339.69;5023847;28;2183;-74
2023/10/19 12:51:07;;;;;;;;;;;;;;;22.12;51.78;99346.31;5039658;28;2470;-74
2023/10/19 12:53:34;;;;;;;;;;;;;;;22.15;51.70;99336.31;5036738;28;4443;-76
2023/10/19 12:56:02;;;;;;;;;;;;;;;22.13;51.70;99344.91;5037365;28;4427;-73
2023/10/19 12:58:29;;;;;;;;;;;;;;;21.93;51.78;99344.59;5035616;28;2364;-72
2023/10/19 13:00:56;;;;;;;;;;;;;;;20.76;51.49;99348.22;5031374;28;6139;-75
2023/10/19 13:03:23;;;;;;;;;;;;;;;21.26;51.81;99342.00;5036218;28;2382;-76
2023/10/19 13:05:50;;;;;;;;;;;;;;;21.45;51.97;99340.19;5034144;28;2398;-75
2023/10/19 13:08:18;;;;;;;;;;;;;;;21.53;52.07;99328.09;5037904;28;2356;-73
2023/10/19 13:10:46;;;;;;;;;;;;;;;21.54;52.34;99338.19;5037975;28;2486;-71
2023/10/19 13:13:17;;;;;;;;;;;;;;;21.55;52.30;99342.53;5038047;28;2444;-72
2023/10/19 13:15:44;;;;;;;;;;;;;;;21.64;52.46;99332.59;5040600;28;2422;-71
2023/10/19 13:18:12;;;;;;;;;;;;;;;21.72;52.68;99341.41;5038729;28;2693;-81
2023/10/19 13:20:43;;;;;;;;;;;;;;;21.79;52.59;99345.09;5037865;28;2406;-76
2023/10/19 13:23:15;;;;;;;;;;;;;;;21.90;52.46;99340.25;5033191;28;2443;-72